SKRG Airport Information

Runway Information
Runway 18 Length 11483 ft width 148 ft
Elevation 7025 ft Threshold 0 ft Heading 180
Runway 36 Length 11483 ft Width 148 ft
Elevation 6967 ft Threshold 0 ft Heading 360
Airport Frequencies
Type APP Name MEDELLIN A Frequency 121.1 MHZ
Type ATIS Name ATIS Frequency 115.1 MHZ
Type GND Name GND Frequency 121.9 MHZ
Type INFO Name MEDELLIN F Frequency 127.2 MHZ
Type RDO Name MEDELLIN R Frequency 348.8 MHZ
Type RDO Name MEDELLIN R Frequency 891.8 MHZ
Type TWR Name TWR Frequency 118.6 MHZ
Airport Navaids
Type NDB Name Medellin Frequency 274 KHZ
Type VOR-DME Name Marinilla Frequency 113000 KHZ
Type VOR-DME Name Rionegro Frequency 115100 KHZ
Airport Weather Information & NOTAM
ADDS - METARS form results

(0125 UTC 26 February 2018)
 
METAR text: SKRG 260100Z 03004KT 9999 BKN012 BKN080 13/13 A3033 REDZ
Conditions at: SKRG (RIONEGRO/JOSE MA, CO) observed 0100 UTC 26 February 2018
Temperature: 13.0°C (55°F)
Dewpoint: 13.0°C (55°F) [RH = 100%]
Pressure (altimeter): 30.33 inches Hg (1027.2 mb)
Winds: from the NNE (30 degrees) at 5 MPH (4 knots; 2.1 m/s)
Visibility: 6 or more miles (10+ km)
Ceiling: 1200 feet AGL
Clouds: broken clouds at 1200 feet AGL
broken clouds at 8000 feet AGL
Weather: no significant weather observed at this time